createdAt,value
2022-08-20T00:01:08.794Z,1.48
2022-08-20T00:03:41.550Z,1.60
2022-08-20T00:06:21.546Z,1.25
2022-08-20T00:08:49.056Z,1.50
2022-08-20T00:11:21.250Z,1.27
2022-08-20T00:13:55.513Z,1.60
2022-08-20T00:16:23.836Z,1.30
2022-08-20T00:18:51.054Z,1.20
2022-08-20T00:21:20.078Z,1.10
2022-08-20T00:23:50.389Z,1.40
2022-08-20T00:26:18.615Z,3.85
2022-08-20T00:28:46.078Z,1.17
2022-08-20T00:31:16.284Z,1.40
2022-08-20T00:33:42.917Z,1.50
2022-08-20T00:36:12.134Z,1.58
2022-08-20T00:38:40.986Z,1.48
2022-08-20T00:41:10.895Z,2.92
2022-08-20T00:43:40.898Z,1.38
2022-08-20T00:46:31.597Z,2.22
2022-08-20T00:48:59.887Z,1.40
2022-08-20T00:51:48.285Z,1.75
2022-08-20T00:54:20.680Z,2.75
2022-08-20T00:56:52.621Z,1.83
2022-08-20T00:59:23.216Z,2.60
2022-08-20T01:01:55.325Z,2.70
2022-08-20T01:04:27.797Z,2.60
2022-08-20T01:06:54.499Z,1.73
2022-08-20T01:09:50.348Z,1.73
2022-08-20T01:12:09.877Z,1.80
2022-08-20T01:14:45.528Z,2.10
2022-08-20T01:17:17.652Z,2.15
2022-08-20T01:19:58.306Z,1.65
2022-08-20T01:22:53.771Z,1.92
2022-08-20T01:25:30.428Z,2.40
2022-08-20T01:27:57.731Z,1.63
2022-08-20T01:30:27.794Z,2.05
2022-08-20T01:32:54.923Z,2.10
2022-08-20T01:35:24.803Z,1.98
2022-08-20T01:37:51.768Z,3.05
2022-08-20T01:40:44.390Z,1.77
2022-08-20T01:43:11.500Z,1.90
2022-08-20T01:45:40.228Z,2.10
2022-08-20T01:48:08.045Z,2.17
2022-08-20T01:50:40.172Z,1.90
2022-08-20T01:53:16.945Z,2.00
2022-08-20T01:55:43.697Z,2.33
2022-08-20T01:58:10.464Z,2.17
2022-08-20T02:00:36.869Z,2.97
2022-08-20T02:03:03.732Z,3.15
2022-08-20T02:05:31.040Z,2.50
2022-08-20T02:07:57.505Z,2.63
2022-08-20T02:10:24.031Z,2.08
2022-08-20T02:12:50.492Z,1.95
2022-08-20T02:15:35.193Z,2.00
2022-08-20T02:18:08.245Z,2.60
2022-08-20T02:20:36.277Z,2.13
2022-08-20T02:23:05.290Z,1.70
2022-08-20T02:25:34.063Z,1.90
2022-08-20T02:28:07.852Z,2.35
2022-08-20T02:30:40.292Z,2.35
2022-08-20T02:33:09.589Z,2.15
2022-08-20T02:35:37.456Z,2.40
2022-08-20T02:38:04.107Z,2.40
2022-08-20T02:40:31.618Z,2.30
2022-08-20T02:43:00.345Z,2.60
2022-08-20T02:45:28.354Z,2.28
2022-08-20T02:47:56.876Z,3.10
2022-08-20T02:50:24.555Z,2.65
2022-08-20T02:52:51.809Z,2.63
2022-08-20T02:55:26.901Z,2.20
2022-08-20T02:57:57.496Z,3.05
2022-08-20T03:00:25.499Z,2.45
2022-08-20T03:02:51.934Z,2.83
2022-08-20T03:05:18.341Z,3.10
2022-08-20T03:07:47.303Z,3.20
2022-08-20T03:10:14.828Z,2.63
2022-08-20T03:12:42.171Z,2.70
2022-08-20T03:15:17.419Z,3.00
2022-08-20T03:17:45.045Z,3.58
2022-08-20T03:20:12.892Z,3.35
2022-08-20T03:22:39.585Z,2.85
2022-08-20T03:25:07.281Z,3.10
2022-08-20T03:27:36.403Z,3.45
2022-08-20T03:30:06.155Z,2.85
2022-08-20T03:32:32.607Z,3.40
2022-08-20T03:34:59.030Z,3.15
2022-08-20T03:37:25.441Z,3.63
2022-08-20T03:39:52.164Z,3.47
2022-08-20T03:42:18.651Z,3.35
2022-08-20T03:44:45.103Z,3.35
2022-08-20T03:47:11.900Z,2.80
2022-08-20T03:49:38.329Z,3.92
2022-08-20T03:52:05.488Z,3.53
2022-08-20T03:54:32.324Z,3.55
2022-08-20T03:57:00.262Z,3.60
2022-08-20T03:59:26.880Z,5.00
2022-08-20T04:01:53.415Z,3.95
2022-08-20T04:04:20.580Z,3.10
2022-08-20T04:06:47.627Z,4.32
2022-08-20T04:09:15.023Z,3.65
2022-08-20T04:11:42.205Z,4.40
2022-08-20T04:14:11.146Z,3.75
2022-08-20T04:16:39.457Z,4.30
2022-08-20T04:19:07.336Z,3.88
2022-08-20T04:21:36.010Z,3.95
2022-08-20T04:24:04.750Z,4.72
2022-08-20T04:26:32.254Z,4.50
2022-08-20T04:28:59.039Z,4.22
2022-08-20T04:31:33.481Z,4.28
2022-08-20T04:34:07.660Z,3.95
2022-08-20T04:39:01.581Z,4.40
2022-08-20T04:41:27.991Z,3.90
2022-08-20T04:43:56.073Z,4.75
2022-08-20T04:46:25.644Z,4.05
2022-08-20T04:48:52.645Z,4.20
2022-08-20T04:51:23.438Z,4.28
2022-08-20T04:53:53.611Z,4.60
2022-08-20T04:56:23.924Z,4.72
2022-08-20T04:58:51.194Z,4.10
2022-08-20T05:01:18.062Z,4.30
2022-08-20T05:03:47.715Z,4.55
2022-08-20T05:06:16.011Z,4.93
2022-08-20T05:08:42.545Z,4.65
2022-08-20T05:11:33.611Z,4.90
2022-08-20T05:13:56.522Z,4.72
2022-08-20T05:16:24.559Z,4.90
2022-08-20T05:18:52.537Z,4.85
2022-08-20T05:21:20.763Z,5.22
2022-08-20T05:23:47.596Z,4.63
2022-08-20T05:26:16.028Z,5.75
2022-08-20T05:28:51.198Z,4.65
2022-08-20T05:31:32.182Z,4.68
2022-08-20T05:34:04.092Z,5.10
2022-08-20T05:36:30.848Z,4.90
2022-08-20T05:38:57.270Z,4.63
2022-08-20T05:41:28.827Z,4.60
2022-08-20T05:43:56.259Z,4.78
2022-08-20T05:46:23.052Z,4.47
2022-08-20T05:48:49.565Z,5.40
2022-08-20T05:51:15.981Z,4.38
2022-08-20T05:53:42.440Z,4.35
2022-08-20T05:56:11.347Z,4.43
2022-08-20T05:58:37.909Z,4.95
2022-08-20T06:01:04.928Z,4.45
2022-08-20T06:03:50.048Z,5.07
2022-08-20T06:06:45.046Z,4.60
2022-08-20T06:09:03.502Z,4.07
2022-08-20T06:11:33.780Z,5.10
2022-08-20T06:14:03.823Z,3.85
2022-08-20T06:16:30.683Z,4.47
2022-08-20T06:18:58.755Z,5.07
2022-08-20T06:21:25.753Z,4.82
2022-08-20T06:23:59.216Z,4.70
2022-08-20T06:26:29.654Z,4.40
2022-08-20T06:28:57.018Z,4.72
2022-08-20T06:31:23.473Z,4.45
2022-08-20T06:33:49.941Z,4.45
2022-08-20T06:36:18.833Z,4.40
2022-08-20T06:38:46.345Z,4.53
2022-08-20T06:41:13.203Z,5.30
2022-08-20T06:43:39.787Z,4.53
2022-08-20T06:46:06.970Z,4.13
2022-08-20T06:48:33.997Z,4.50
2022-08-20T06:51:00.687Z,5.20
2022-08-20T06:53:27.098Z,4.95
2022-08-20T06:55:56.933Z,4.53
2022-08-20T06:58:37.557Z,5.22
2022-08-20T07:01:10.784Z,4.22
2022-08-20T07:03:39.306Z,4.18
2022-08-20T07:06:09.544Z,4.20
2022-08-20T07:08:36.132Z,3.42
2022-08-20T07:11:03.164Z,4.20
2022-08-20T07:13:29.967Z,4.55
2022-08-20T07:15:56.409Z,3.55
2022-08-20T07:18:28.445Z,3.22
2022-08-20T07:20:57.555Z,3.28
2022-08-20T07:23:27.479Z,3.25
2022-08-20T07:25:55.693Z,2.75
2022-08-20T07:28:24.828Z,2.80
2022-08-20T07:31:13.476Z,3.65
2022-08-20T07:33:41.565Z,3.20
2022-08-20T07:36:09.598Z,4.15
2022-08-20T07:38:36.850Z,3.55
2022-08-20T07:41:09.957Z,3.30
2022-08-20T07:43:36.574Z,2.72
2022-08-20T07:46:09.123Z,3.08
2022-08-20T07:48:41.875Z,2.40
2022-08-20T07:51:10.779Z,2.53
2022-08-20T07:53:39.222Z,2.60
2022-08-20T07:56:10.276Z,2.63
2022-08-20T07:58:41.557Z,2.90
2022-08-20T08:01:08.119Z,3.00
2022-08-20T08:03:39.449Z,2.70
2022-08-20T08:06:19.897Z,2.30
2022-08-20T08:09:03.369Z,2.42
2022-08-20T08:11:33.013Z,2.42
2022-08-20T08:14:00.141Z,2.53
2022-08-20T08:16:28.476Z,2.95
2022-08-20T08:18:56.677Z,3.15
2022-08-20T08:21:23.634Z,3.63
2022-08-20T08:23:50.203Z,3.25
2022-08-20T08:26:18.817Z,3.30
2022-08-20T08:28:45.903Z,3.13
2022-08-20T08:31:13.505Z,3.65
2022-08-20T08:33:40.630Z,2.85
2022-08-20T08:36:17.056Z,3.28
2022-08-20T08:38:45.046Z,3.20
2022-08-20T08:41:17.593Z,3.72
2022-08-20T08:43:47.013Z,3.00
2022-08-20T08:46:18.615Z,3.20
2022-08-20T08:48:48.024Z,3.42
2022-08-20T08:51:20.248Z,2.80
2022-08-20T08:53:54.692Z,3.20
2022-08-20T08:56:26.817Z,2.30
2022-08-20T08:58:55.618Z,2.25
2022-08-20T09:01:55.162Z,3.10
2022-08-20T09:04:13.564Z,2.05
2022-08-20T09:06:41.620Z,2.80
2022-08-20T09:09:16.871Z,2.40
2022-08-20T09:11:48.831Z,2.58
2022-08-20T09:14:15.254Z,2.22
2022-08-20T09:16:52.258Z,2.13
2022-08-20T09:19:19.717Z,2.67
2022-08-20T09:21:46.202Z,7.68
2022-08-20T09:24:12.649Z,1.90
2022-08-20T09:26:39.359Z,2.30
2022-08-20T09:29:05.811Z,2.00
2022-08-20T09:31:33.032Z,2.47
2022-08-20T09:33:59.666Z,1.83
2022-08-20T09:36:31.978Z,1.65
2022-08-20T09:39:00.556Z,1.65
2022-08-20T09:41:29.210Z,2.03
2022-08-20T09:43:55.698Z,1.83
2022-08-20T09:46:26.952Z,1.90
2022-08-20T09:48:54.122Z,1.48
2022-08-20T09:51:20.602Z,1.27
2022-08-20T09:53:47.259Z,1.50
2022-08-20T09:56:13.725Z,1.30
2022-08-20T09:58:49.420Z,1.90
2022-08-20T10:01:17.840Z,1.17
2022-08-20T10:03:48.129Z,1.30
2022-08-20T10:06:16.611Z,1.10
2022-08-20T10:08:44.159Z,1.33
2022-08-20T10:11:11.277Z,1.23
2022-08-20T10:13:37.769Z,1.40
2022-08-20T10:16:04.791Z,1.10
2022-08-20T10:18:31.376Z,1.52
2022-08-20T10:20:57.993Z,1.40
2022-08-20T10:23:24.398Z,0.98
2022-08-20T10:25:51.045Z,1.30
2022-08-20T10:28:17.584Z,1.13
2022-08-20T10:30:45.177Z,1.30
2022-08-20T10:33:11.653Z,1.42
2022-08-20T10:35:38.177Z,1.42
2022-08-20T10:38:04.676Z,1.17
2022-08-20T10:40:31.210Z,1.05
2022-08-20T10:42:57.721Z,1.33
2022-08-20T10:45:25.709Z,1.45
2022-08-20T10:47:52.265Z,1.20
2022-08-20T10:50:20.155Z,1.15
2022-08-20T10:52:47.121Z,1.20
2022-08-20T10:55:13.714Z,1.60
2022-08-20T10:57:42.133Z,1.40
2022-08-20T11:00:13.820Z,1.23
2022-08-20T11:02:40.934Z,1.50
2022-08-20T11:05:07.836Z,1.40
2022-08-20T11:07:55.541Z,1.75
2022-08-20T11:10:25.278Z,1.00
2022-08-20T11:12:51.794Z,1.33
2022-08-20T11:15:18.472Z,1.70
2022-08-20T11:17:45.690Z,1.02
2022-08-20T11:20:15.009Z,1.40
2022-08-20T11:22:41.433Z,1.10
2022-08-20T11:25:08.523Z,1.20
2022-08-20T11:27:41.121Z,1.30
2022-08-20T11:30:12.446Z,1.30
2022-08-20T11:32:38.908Z,1.17
2022-08-20T11:35:24.543Z,0.82
2022-08-20T11:37:55.552Z,1.48
2022-08-20T11:40:22.753Z,1.30
2022-08-20T11:43:13.146Z,0.90
2022-08-20T11:45:37.511Z,0.88
2022-08-20T11:48:04.543Z,0.85
2022-08-20T11:50:31.016Z,0.70
2022-08-20T11:52:57.501Z,0.70
2022-08-20T11:55:30.007Z,0.85
2022-08-20T11:57:59.628Z,1.08
2022-08-20T12:00:32.311Z,0.70
2022-08-20T12:03:05.101Z,0.55
2022-08-20T12:05:32.280Z,0.95
2022-08-20T12:08:01.207Z,0.55
2022-08-20T12:10:28.642Z,0.85
2022-08-20T12:12:56.039Z,0.70
2022-08-20T12:15:24.214Z,0.45
2022-08-20T12:17:50.717Z,0.70
2022-08-20T12:20:17.294Z,0.60
2022-08-20T12:22:46.545Z,0.70
2022-08-20T12:25:13.365Z,0.50
2022-08-20T12:27:40.463Z,0.52
2022-08-20T12:30:10.580Z,0.73
2022-08-20T12:32:37.272Z,0.80
2022-08-20T12:35:05.128Z,0.60
2022-08-20T12:37:32.139Z,0.70
2022-08-20T12:40:00.472Z,0.80
2022-08-20T12:42:30.255Z,0.60
2022-08-20T12:44:57.687Z,0.60
2022-08-20T12:47:32.595Z,0.52
2022-08-20T12:50:01.571Z,0.50
2022-08-20T12:52:30.098Z,0.60
2022-08-20T12:54:57.200Z,0.57
2022-08-20T12:57:32.897Z,0.50
2022-08-20T13:00:10.415Z,0.50
2022-08-20T13:02:38.621Z,0.57
2022-08-20T13:05:06.426Z,0.70
2022-08-20T13:07:33.329Z,0.52
2022-08-20T13:10:00.496Z,0.80
2022-08-20T13:12:27.215Z,0.60
2022-08-20T13:14:53.943Z,1.08
2022-08-20T13:17:38.115Z,0.75
2022-08-20T13:20:08.930Z,1.00
2022-08-20T13:22:35.481Z,0.60
2022-08-20T13:25:01.907Z,0.57
2022-08-20T13:27:28.321Z,0.90
2022-08-20T13:29:58.623Z,0.82
2022-08-20T13:32:25.921Z,1.00
2022-08-20T13:34:52.414Z,0.60
2022-08-20T13:37:25.854Z,0.80
2022-08-20T13:39:53.714Z,0.85
2022-08-20T13:42:20.644Z,1.05
2022-08-20T13:44:48.027Z,1.02
2022-08-20T13:47:25.007Z,0.77
2022-08-20T13:49:56.290Z,0.95
2022-08-20T13:52:23.117Z,0.60
2022-08-20T13:54:50.526Z,0.80
2022-08-20T13:57:19.037Z,1.00
2022-08-20T13:59:48.656Z,0.90
2022-08-20T14:02:17.307Z,0.90
2022-08-20T14:04:44.868Z,1.00
2022-08-20T14:07:16.044Z,1.17
2022-08-20T14:09:46.192Z,0.90
2022-08-20T14:12:13.665Z,1.20
2022-08-20T14:14:41.164Z,1.15
2022-08-20T14:17:17.922Z,1.08
2022-08-20T14:19:45.901Z,0.95
2022-08-20T14:22:12.556Z,1.00
2022-08-20T14:24:39.018Z,1.27
2022-08-20T14:27:08.055Z,1.60
2022-08-20T14:29:37.562Z,1.05
2022-08-20T14:32:04.814Z,1.50
2022-08-20T14:34:31.919Z,1.20
2022-08-20T14:37:19.709Z,1.30
2022-08-20T14:39:51.279Z,1.30
2022-08-20T14:42:17.779Z,1.40
2022-08-20T14:44:45.236Z,1.23
2022-08-20T14:47:23.362Z,1.30
2022-08-20T14:49:51.940Z,1.40
2022-08-20T14:52:20.011Z,1.40
2022-08-20T14:54:47.129Z,1.40
2022-08-20T14:57:15.013Z,1.63
2022-08-20T14:59:42.790Z,1.48
2022-08-20T15:02:11.654Z,1.60
2022-08-20T15:04:39.431Z,1.40
2022-08-20T15:07:14.025Z,1.80
2022-08-20T15:09:43.062Z,1.35
2022-08-20T15:12:09.491Z,1.40
2022-08-20T15:14:39.321Z,1.55
2022-08-20T15:17:05.977Z,1.90
2022-08-20T15:19:32.823Z,1.98
2022-08-20T15:21:59.281Z,1.52
2022-08-20T15:24:25.686Z,1.30
2022-08-20T15:26:52.092Z,2.17
2022-08-20T15:29:23.401Z,1.50
2022-08-20T15:31:50.791Z,1.67
2022-08-20T15:34:17.716Z,1.83
2022-08-20T15:36:44.721Z,1.48
2022-08-20T15:39:11.114Z,1.42
2022-08-20T15:41:37.600Z,1.77
2022-08-20T15:44:04.069Z,1.80
2022-08-20T15:46:33.613Z,1.60
2022-08-20T15:49:04.587Z,1.70
2022-08-20T15:51:42.874Z,1.63
2022-08-20T15:54:18.838Z,1.65
2022-08-20T15:57:12.529Z,1.80
2022-08-20T15:59:56.541Z,1.92
2022-08-20T16:02:46.639Z,1.70
2022-08-20T16:05:22.046Z,1.73
2022-08-20T16:07:58.682Z,1.65
2022-08-20T16:11:00.403Z,1.65
2022-08-20T16:13:37.668Z,1.67
2022-08-20T16:16:06.769Z,1.70
2022-08-20T16:18:37.621Z,1.23
2022-08-20T16:21:09.914Z,1.65
2022-08-20T16:23:39.602Z,1.40
2022-08-20T16:26:32.335Z,1.60
2022-08-20T16:29:11.856Z,1.75
2022-08-20T16:32:04.468Z,2.03
2022-08-20T16:34:40.353Z,1.60
2022-08-20T16:37:27.492Z,1.25
2022-08-20T16:40:27.248Z,1.33
2022-08-20T16:42:56.913Z,1.45
2022-08-20T16:45:28.327Z,1.60
2022-08-20T16:48:01.101Z,1.63
2022-08-20T16:50:33.540Z,1.60
2022-08-20T16:53:00.140Z,1.80
2022-08-20T16:55:26.727Z,2.53
2022-08-20T16:57:53.745Z,1.63
2022-08-20T17:00:45.275Z,1.67
2022-08-20T17:03:33.620Z,1.33
2022-08-20T17:06:25.723Z,2.17
2022-08-20T17:08:53.751Z,2.10
2022-08-20T17:11:29.055Z,1.58
2022-08-20T17:14:22.126Z,1.30
2022-08-20T17:16:51.555Z,1.98
2022-08-20T17:19:32.390Z,1.90
2022-08-20T17:22:12.739Z,2.70
2022-08-20T17:24:40.161Z,2.22
2022-08-20T17:27:14.780Z,1.90
2022-08-20T17:29:54.061Z,2.00
2022-08-20T17:32:28.195Z,2.75
2022-08-20T17:34:58.330Z,1.70
2022-08-20T17:37:29.255Z,1.70
2022-08-20T17:40:18.662Z,2.35
2022-08-20T17:42:59.304Z,1.85
2022-08-20T17:45:28.073Z,2.05
2022-08-20T17:47:59.506Z,1.40
2022-08-20T17:50:33.124Z,1.42
2022-08-20T17:55:35.426Z,1.88
2022-08-20T17:58:06.358Z,1.40
2022-08-20T18:00:32.973Z,1.30
2022-08-20T18:03:22.416Z,1.52
2022-08-20T18:05:56.833Z,1.45
2022-08-20T18:08:37.198Z,1.60
2022-08-20T18:11:09.694Z,1.75
2022-08-20T18:13:48.404Z,1.63
2022-08-20T18:16:25.367Z,1.23
2022-08-20T18:18:58.450Z,1.45
2022-08-20T18:21:51.383Z,1.42
2022-08-20T18:24:26.339Z,1.50
2022-08-20T18:26:58.164Z,1.83
2022-08-20T18:29:31.505Z,1.57
2022-08-20T18:32:00.793Z,1.40
2022-08-20T18:34:30.949Z,1.80
2022-08-20T18:37:00.503Z,1.25
2022-08-20T18:39:34.106Z,1.75
2022-08-20T18:42:00.553Z,2.17
2022-08-20T18:44:48.258Z,1.63
2022-08-20T18:47:32.223Z,1.70
2022-08-20T18:50:16.839Z,1.95
2022-08-20T18:53:11.012Z,1.85
2022-08-20T18:56:05.319Z,1.80
2022-08-20T19:01:20.796Z,1.80
2022-08-20T19:03:50.962Z,2.13
2022-08-20T19:06:44.789Z,1.52
2022-08-20T19:09:27.286Z,2.08
2022-08-20T19:12:15.772Z,1.73
2022-08-20T19:15:07.107Z,2.45
2022-08-20T19:17:48.680Z,2.10
2022-08-20T19:20:29.275Z,1.83
2022-08-20T19:23:03.823Z,2.05
2022-08-20T19:25:38.327Z,2.20
2022-08-20T19:28:21.327Z,2.25
2022-08-20T19:30:48.849Z,2.33
2022-08-20T19:33:25.917Z,2.10
2022-08-20T19:36:07.045Z,2.40
2022-08-20T19:38:33.453Z,2.22
2022-08-20T19:41:11.299Z,2.03
2022-08-20T19:43:44.822Z,1.80
2022-08-20T19:46:15.273Z,1.97
2022-08-20T19:49:05.760Z,2.30
2022-08-20T19:51:52.074Z,2.10
2022-08-20T19:54:25.251Z,2.20
2022-08-20T19:56:56.288Z,1.98
2022-08-20T19:59:22.811Z,2.28
2022-08-20T20:02:02.725Z,5.65
2022-08-20T20:04:38.261Z,2.38
2022-08-20T20:07:15.727Z,2.22
2022-08-20T20:09:42.360Z,2.90
2022-08-20T20:12:22.792Z,2.70
2022-08-20T20:14:52.150Z,2.58
2022-08-20T20:17:26.777Z,2.90
2022-08-20T20:19:59.005Z,2.70
2022-08-20T20:22:31.841Z,3.17
2022-08-20T20:25:18.101Z,3.28
2022-08-20T20:27:54.395Z,7.35
2022-08-20T20:30:28.635Z,5.63
2022-08-20T20:32:58.003Z,2.88
2022-08-20T20:35:34.486Z,1.80
2022-08-20T20:38:04.824Z,1.85
2022-08-20T20:40:42.294Z,2.97
2022-08-20T20:43:21.834Z,2.13
2022-08-20T20:45:58.383Z,2.22
2022-08-20T20:48:28.374Z,3.03
2022-08-20T20:50:59.650Z,2.67
2022-08-20T20:53:53.121Z,2.70
2022-08-20T20:56:42.418Z,2.05
2022-08-20T20:59:10.477Z,2.33
2022-08-20T21:01:48.526Z,2.10
2022-08-20T21:04:16.971Z,2.88
2022-08-20T21:06:44.097Z,2.67
2022-08-20T21:09:10.661Z,2.03
2022-08-20T21:11:37.163Z,2.65
2022-08-20T21:14:03.605Z,3.33
2022-08-20T21:16:30.099Z,2.80
2022-08-20T21:18:58.256Z,3.03
2022-08-20T21:21:24.745Z,2.80
2022-08-20T21:23:51.227Z,2.80
2022-08-20T21:26:17.648Z,4.20
2022-08-20T21:28:44.105Z,3.20
2022-08-20T21:31:10.531Z,1.83
2022-08-20T21:33:36.957Z,2.33
2022-08-20T21:36:03.673Z,2.20
2022-08-20T21:38:30.909Z,2.60
2022-08-20T21:40:57.995Z,2.40
2022-08-20T21:43:24.883Z,1.90
2022-08-20T21:45:51.619Z,2.10
2022-08-20T21:48:18.744Z,1.95
2022-08-20T21:50:45.170Z,2.33
2022-08-20T21:53:13.174Z,1.98
2022-08-20T21:55:40.391Z,1.90
2022-08-20T21:58:07.688Z,2.30
2022-08-20T22:01:01.755Z,2.45
2022-08-20T22:03:34.817Z,1.98
2022-08-20T22:06:06.666Z,2.03
2022-08-20T22:08:33.440Z,2.00
2022-08-20T22:11:00.961Z,2.72
2022-08-20T22:13:31.605Z,2.42
2022-08-20T22:16:03.909Z,2.08
2022-08-20T22:18:30.728Z,2.47
2022-08-20T22:20:57.341Z,2.75
2022-08-20T22:23:24.220Z,2.78
2022-08-20T22:25:50.795Z,2.35
2022-08-20T22:28:17.775Z,2.35
2022-08-20T22:30:44.757Z,2.22
2022-08-20T22:33:19.168Z,2.25
2022-08-20T22:35:49.269Z,2.83
2022-08-20T22:38:16.771Z,2.78
2022-08-20T22:40:43.963Z,2.45
2022-08-20T22:43:11.494Z,2.70
2022-08-20T22:45:39.659Z,2.65
2022-08-20T22:48:07.007Z,2.42
2022-08-20T22:50:33.679Z,2.40
2022-08-20T22:53:01.720Z,2.90
2022-08-20T22:55:28.235Z,2.53
2022-08-20T22:57:55.005Z,3.15
2022-08-20T23:00:24.179Z,4.50
2022-08-20T23:03:00.465Z,2.50
2022-08-20T23:05:29.331Z,2.47
2022-08-20T23:07:57.429Z,2.70
2022-08-20T23:10:25.463Z,2.42
2022-08-20T23:12:52.352Z,2.80
2022-08-20T23:15:19.437Z,2.53
2022-08-20T23:17:46.359Z,2.78
2022-08-20T23:20:17.153Z,2.83
2022-08-20T23:22:44.127Z,2.50
2022-08-20T23:25:12.361Z,2.47
2022-08-20T23:27:47.204Z,5.90
2022-08-20T23:30:15.674Z,2.67
2022-08-20T23:32:42.113Z,2.55
2022-08-20T23:35:10.031Z,4.00
2022-08-20T23:37:42.002Z,2.13
2022-08-20T23:40:16.348Z,2.80
2022-08-20T23:42:45.200Z,1.90
2022-08-20T23:45:12.991Z,2.80
2022-08-20T23:47:40.122Z,2.40
2022-08-20T23:50:09.313Z,2.85
2022-08-20T23:52:35.727Z,2.70
2022-08-20T23:55:02.156Z,15.98
2022-08-20T23:57:28.701Z,2.63
2022-08-20T23:59:55.476Z,2.85
